sensor_id;sensor_type;location;lat;lon;timestamp;P1;durP1;ratioP1;P2;durP2;ratioP2
11100;SDS011;5604;50.722;7.078;2022-09-09T00:00:53;197.40;;;189.80;;
11100;SDS011;5604;50.722;7.078;2022-09-09T00:03:30;196.53;;;189.10;;
11100;SDS011;5604;50.722;7.078;2022-09-09T00:06:03;180.53;;;173.63;;
11100;SDS011;5604;50.722;7.078;2022-09-09T00:08:38;176.23;;;169.37;;
11100;SDS011;5604;50.722;7.078;2022-09-09T00:11:13;176.07;;;169.17;;
11100;SDS011;5604;50.722;7.078;2022-09-09T00:13:56;173.03;;;166.20;;
11100;SDS011;5604;50.722;7.078;2022-09-09T00:16:27;165.27;;;158.83;;
11100;SDS011;5604;50.722;7.078;2022-09-09T00:19:00;169.10;;;162.27;;
11100;SDS011;5604;50.722;7.078;2022-09-09T00:21:32;164.60;;;158.03;;
11100;SDS011;5604;50.722;7.078;2022-09-09T00:24:04;170.40;;;163.63;;
11100;SDS011;5604;50.722;7.078;2022-09-09T00:26:38;161.47;;;155.17;;
11100;SDS011;5604;50.722;7.078;2022-09-09T00:29:10;163.57;;;157.17;;
11100;SDS011;5604;50.722;7.078;2022-09-09T00:31:45;155.50;;;149.47;;
11100;SDS011;5604;50.722;7.078;2022-09-09T00:34:16;147.00;;;141.20;;
11100;SDS011;5604;50.722;7.078;2022-09-09T00:36:46;147.53;;;141.70;;
11100;SDS011;5604;50.722;7.078;2022-09-09T00:39:19;142.03;;;136.47;;
11100;SDS011;5604;50.722;7.078;2022-09-09T00:41:55;144.97;;;139.17;;
11100;SDS011;5604;50.722;7.078;2022-09-09T00:44:32;145.40;;;139.70;;
11100;SDS011;5604;50.722;7.078;2022-09-09T00:47:09;130.13;;;124.87;;
11100;SDS011;5604;50.722;7.078;2022-09-09T00:49:46;131.10;;;125.73;;
11100;SDS011;5604;50.722;7.078;2022-09-09T00:52:30;128.13;;;123.20;;
11100;SDS011;5604;50.722;7.078;2022-09-09T00:55:04;126.87;;;121.63;;
11100;SDS011;5604;50.722;7.078;2022-09-09T00:57:35;128.03;;;123.03;;
11100;SDS011;5604;50.722;7.078;2022-09-09T01:00:21;126.80;;;121.80;;
11100;SDS011;5604;50.722;7.078;2022-09-09T01:02:57;124.73;;;119.87;;
11100;SDS011;5604;50.722;7.078;2022-09-09T01:05:35;124.20;;;119.03;;
11100;SDS011;5604;50.722;7.078;2022-09-09T01:08:09;127.23;;;122.30;;
11100;SDS011;5604;50.722;7.078;2022-09-09T01:10:44;117.70;;;112.97;;
11100;SDS011;5604;50.722;7.078;2022-09-09T01:13:20;116.97;;;112.23;;
11100;SDS011;5604;50.722;7.078;2022-09-09T01:15:50;116.60;;;111.93;;
11100;SDS011;5604;50.722;7.078;2022-09-09T01:18:27;111.07;;;106.57;;
11100;SDS011;5604;50.722;7.078;2022-09-09T01:21:01;112.97;;;108.47;;
11100;SDS011;5604;50.722;7.078;2022-09-09T01:23:36;114.73;;;110.13;;
11100;SDS011;5604;50.722;7.078;2022-09-09T01:26:30;105.00;;;100.37;;
11100;SDS011;5604;50.722;7.078;2022-09-09T01:29:06;105.50;;;101.30;;
11100;SDS011;5604;50.722;7.078;2022-09-09T01:31:40;106.93;;;102.33;;
11100;SDS011;5604;50.722;7.078;2022-09-09T01:34:11;104.97;;;100.87;;
11100;SDS011;5604;50.722;7.078;2022-09-09T01:36:41;99.30;;;95.23;;
11100;SDS011;5604;50.722;7.078;2022-09-09T01:39:12;96.70;;;92.53;;
11100;SDS011;5604;50.722;7.078;2022-09-09T01:41:42;100.90;;;96.57;;
11100;SDS011;5604;50.722;7.078;2022-09-09T01:44:12;92.40;;;88.63;;
11100;SDS011;5604;50.722;7.078;2022-09-09T01:46:43;98.10;;;94.13;;
11100;SDS011;5604;50.722;7.078;2022-09-09T01:49:17;91.17;;;87.27;;
11100;SDS011;5604;50.722;7.078;2022-09-09T01:51:46;90.43;;;86.63;;
11100;SDS011;5604;50.722;7.078;2022-09-09T01:54:20;91.90;;;87.97;;
11100;SDS011;5604;50.722;7.078;2022-09-09T01:56:55;97.13;;;93.33;;
11100;SDS011;5604;50.722;7.078;2022-09-09T01:59:33;90.00;;;86.33;;
11100;SDS011;5604;50.722;7.078;2022-09-09T02:02:10;89.13;;;85.40;;
11100;SDS011;5604;50.722;7.078;2022-09-09T02:04:47;95.20;;;91.33;;
11100;SDS011;5604;50.722;7.078;2022-09-09T02:07:25;81.77;;;78.23;;
11100;SDS011;5604;50.722;7.078;2022-09-09T02:10:00;81.27;;;77.87;;
11100;SDS011;5604;50.722;7.078;2022-09-09T02:12:31;83.53;;;80.13;;
11100;SDS011;5604;50.722;7.078;2022-09-09T02:15:05;80.43;;;77.03;;
11100;SDS011;5604;50.722;7.078;2022-09-09T02:17:45;81.80;;;78.40;;
11100;SDS011;5604;50.722;7.078;2022-09-09T02:20:27;81.50;;;78.17;;
11100;SDS011;5604;50.722;7.078;2022-09-09T02:23:04;79.77;;;76.50;;
11100;SDS011;5604;50.722;7.078;2022-09-09T02:25:33;82.63;;;79.17;;
11100;SDS011;5604;50.722;7.078;2022-09-09T02:28:16;78.53;;;75.33;;
11100;SDS011;5604;50.722;7.078;2022-09-09T02:30:47;77.70;;;74.43;;
11100;SDS011;5604;50.722;7.078;2022-09-09T02:36:14;80.27;;;76.80;;
11100;SDS011;5604;50.722;7.078;2022-09-09T02:38:52;75.57;;;72.23;;
11100;SDS011;5604;50.722;7.078;2022-09-09T02:41:50;70.60;;;67.67;;
11100;SDS011;5604;50.722;7.078;2022-09-09T02:47:44;68.50;;;65.60;;
11100;SDS011;5604;50.722;7.078;2022-09-09T02:50:33;74.63;;;71.43;;
11100;SDS011;5604;50.722;7.078;2022-09-09T02:53:14;78.27;;;75.03;;
11100;SDS011;5604;50.722;7.078;2022-09-09T02:55:47;75.20;;;71.80;;
11100;SDS011;5604;50.722;7.078;2022-09-09T02:58:59;68.93;;;65.90;;
11100;SDS011;5604;50.722;7.078;2022-09-09T03:01:36;69.13;;;66.17;;
11100;SDS011;5604;50.722;7.078;2022-09-09T03:04:16;77.10;;;73.97;;
11100;SDS011;5604;50.722;7.078;2022-09-09T03:06:47;74.13;;;71.10;;
11100;SDS011;5604;50.722;7.078;2022-09-09T03:09:19;77.43;;;74.20;;
11100;SDS011;5604;50.722;7.078;2022-09-09T03:11:48;73.90;;;70.73;;
11100;SDS011;5604;50.722;7.078;2022-09-09T03:14:18;74.53;;;71.57;;
11100;SDS011;5604;50.722;7.078;2022-09-09T03:16:50;70.17;;;67.23;;
11100;SDS011;5604;50.722;7.078;2022-09-09T03:19:24;70.07;;;67.13;;
11100;SDS011;5604;50.722;7.078;2022-09-09T03:22:00;66.83;;;63.93;;
11100;SDS011;5604;50.722;7.078;2022-09-09T03:24:41;65.40;;;62.53;;
11100;SDS011;5604;50.722;7.078;2022-09-09T03:28:21;55.43;;;52.93;;
11100;SDS011;5604;50.722;7.078;2022-09-09T03:31:14;59.00;;;56.57;;
11100;SDS011;5604;50.722;7.078;2022-09-09T03:37:45;53.83;;;51.47;;
11100;SDS011;5604;50.722;7.078;2022-09-09T03:43:17;62.60;;;59.93;;
11100;SDS011;5604;50.722;7.078;2022-09-09T03:45:46;60.97;;;58.40;;
11100;SDS011;5604;50.722;7.078;2022-09-09T03:48:15;62.47;;;59.83;;
11100;SDS011;5604;50.722;7.078;2022-09-09T03:50:46;60.00;;;57.20;;
11100;SDS011;5604;50.722;7.078;2022-09-09T03:53:14;65.30;;;62.43;;
11100;SDS011;5604;50.722;7.078;2022-09-09T03:55:43;63.83;;;61.20;;
11100;SDS011;5604;50.722;7.078;2022-09-09T03:58:12;65.77;;;62.80;;
11100;SDS011;5604;50.722;7.078;2022-09-09T04:00:41;63.00;;;60.27;;
11100;SDS011;5604;50.722;7.078;2022-09-09T04:03:11;58.37;;;55.87;;
11100;SDS011;5604;50.722;7.078;2022-09-09T04:05:40;65.20;;;62.40;;
11100;SDS011;5604;50.722;7.078;2022-09-09T04:08:10;64.00;;;61.13;;
11100;SDS011;5604;50.722;7.078;2022-09-09T04:10:39;56.23;;;53.93;;
11100;SDS011;5604;50.722;7.078;2022-09-09T04:13:08;59.93;;;57.27;;
11100;SDS011;5604;50.722;7.078;2022-09-09T04:15:38;57.73;;;55.20;;
11100;SDS011;5604;50.722;7.078;2022-09-09T04:18:06;56.93;;;54.40;;
11100;SDS011;5604;50.722;7.078;2022-09-09T04:20:35;58.70;;;56.10;;
11100;SDS011;5604;50.722;7.078;2022-09-09T04:23:03;54.97;;;52.67;;
11100;SDS011;5604;50.722;7.078;2022-09-09T04:25:34;61.23;;;58.43;;
11100;SDS011;5604;50.722;7.078;2022-09-09T04:28:02;58.40;;;55.60;;
11100;SDS011;5604;50.722;7.078;2022-09-09T04:30:35;57.57;;;55.00;;
11100;SDS011;5604;50.722;7.078;2022-09-09T04:33:06;57.30;;;54.83;;
11100;SDS011;5604;50.722;7.078;2022-09-09T04:35:35;54.43;;;52.07;;
11100;SDS011;5604;50.722;7.078;2022-09-09T04:38:05;55.90;;;53.43;;
11100;SDS011;5604;50.722;7.078;2022-09-09T04:40:38;63.37;;;60.60;;
11100;SDS011;5604;50.722;7.078;2022-09-09T04:43:09;54.47;;;52.03;;
11100;SDS011;5604;50.722;7.078;2022-09-09T04:45:41;57.10;;;54.53;;
11100;SDS011;5604;50.722;7.078;2022-09-09T04:48:09;55.20;;;52.77;;
11100;SDS011;5604;50.722;7.078;2022-09-09T04:50:38;57.17;;;54.47;;
11100;SDS011;5604;50.722;7.078;2022-09-09T04:53:09;58.60;;;56.00;;
11100;SDS011;5604;50.722;7.078;2022-09-09T04:55:39;60.77;;;58.20;;
11100;SDS011;5604;50.722;7.078;2022-09-09T04:58:08;56.83;;;54.37;;
11100;SDS011;5604;50.722;7.078;2022-09-09T05:00:37;58.00;;;55.57;;
11100;SDS011;5604;50.722;7.078;2022-09-09T05:03:08;57.23;;;54.63;;
11100;SDS011;5604;50.722;7.078;2022-09-09T05:05:36;54.57;;;52.13;;
11100;SDS011;5604;50.722;7.078;2022-09-09T05:08:05;57.33;;;54.87;;
11100;SDS011;5604;50.722;7.078;2022-09-09T05:10:36;59.67;;;57.13;;
11100;SDS011;5604;50.722;7.078;2022-09-09T05:13:06;58.93;;;56.27;;
11100;SDS011;5604;50.722;7.078;2022-09-09T05:15:35;56.50;;;53.77;;
11100;SDS011;5604;50.722;7.078;2022-09-09T05:18:04;59.30;;;56.80;;
11100;SDS011;5604;50.722;7.078;2022-09-09T05:20:32;59.90;;;57.27;;
11100;SDS011;5604;50.722;7.078;2022-09-09T05:23:03;59.20;;;56.57;;
11100;SDS011;5604;50.722;7.078;2022-09-09T05:25:32;56.93;;;54.33;;
11100;SDS011;5604;50.722;7.078;2022-09-09T05:28:00;55.07;;;52.43;;
11100;SDS011;5604;50.722;7.078;2022-09-09T05:30:30;54.17;;;51.73;;
11100;SDS011;5604;50.722;7.078;2022-09-09T05:33:00;53.67;;;51.50;;
11100;SDS011;5604;50.722;7.078;2022-09-09T05:35:30;59.67;;;57.10;;
11100;SDS011;5604;50.722;7.078;2022-09-09T05:37:59;53.03;;;50.70;;
11100;SDS011;5604;50.722;7.078;2022-09-09T05:40:28;59.80;;;57.37;;
11100;SDS011;5604;50.722;7.078;2022-09-09T05:42:59;57.10;;;54.60;;
11100;SDS011;5604;50.722;7.078;2022-09-09T05:45:29;51.67;;;49.50;;
11100;SDS011;5604;50.722;7.078;2022-09-09T05:47:57;55.53;;;53.00;;
11100;SDS011;5604;50.722;7.078;2022-09-09T05:50:26;54.87;;;52.37;;
11100;SDS011;5604;50.722;7.078;2022-09-09T05:52:57;56.77;;;54.20;;
11100;SDS011;5604;50.722;7.078;2022-09-09T05:55:25;57.40;;;54.70;;
11100;SDS011;5604;50.722;7.078;2022-09-09T05:57:54;53.90;;;51.40;;
11100;SDS011;5604;50.722;7.078;2022-09-09T06:00:24;57.73;;;55.10;;
11100;SDS011;5604;50.722;7.078;2022-09-09T06:02:56;57.60;;;54.73;;
11100;SDS011;5604;50.722;7.078;2022-09-09T06:05:24;53.40;;;51.03;;
11100;SDS011;5604;50.722;7.078;2022-09-09T06:07:54;56.63;;;54.07;;
11100;SDS011;5604;50.722;7.078;2022-09-09T06:10:23;56.43;;;53.73;;
11100;SDS011;5604;50.722;7.078;2022-09-09T06:12:52;55.37;;;53.00;;
11100;SDS011;5604;50.722;7.078;2022-09-09T06:15:23;57.30;;;54.70;;
11100;SDS011;5604;50.722;7.078;2022-09-09T06:17:53;58.40;;;55.90;;
11100;SDS011;5604;50.722;7.078;2022-09-09T06:20:23;59.80;;;57.00;;
11100;SDS011;5604;50.722;7.078;2022-09-09T06:22:52;60.20;;;57.27;;
11100;SDS011;5604;50.722;7.078;2022-09-09T06:25:20;55.20;;;52.63;;
11100;SDS011;5604;50.722;7.078;2022-09-09T06:27:48;62.47;;;59.57;;
11100;SDS011;5604;50.722;7.078;2022-09-09T06:30:17;57.83;;;55.17;;
11100;SDS011;5604;50.722;7.078;2022-09-09T06:32:45;61.77;;;58.80;;
11100;SDS011;5604;50.722;7.078;2022-09-09T06:35:15;58.33;;;55.87;;
11100;SDS011;5604;50.722;7.078;2022-09-09T06:37:44;59.03;;;56.37;;
11100;SDS011;5604;50.722;7.078;2022-09-09T06:40:17;56.37;;;53.93;;
11100;SDS011;5604;50.722;7.078;2022-09-09T06:42:46;56.80;;;54.17;;
11100;SDS011;5604;50.722;7.078;2022-09-09T06:45:31;55.60;;;52.97;;
11100;SDS011;5604;50.722;7.078;2022-09-09T06:47:59;57.70;;;54.97;;
11100;SDS011;5604;50.722;7.078;2022-09-09T06:50:29;60.70;;;57.73;;
11100;SDS011;5604;50.722;7.078;2022-09-09T06:52:58;53.63;;;51.20;;
11100;SDS011;5604;50.722;7.078;2022-09-09T06:55:26;54.80;;;52.37;;
11100;SDS011;5604;50.722;7.078;2022-09-09T06:57:54;58.13;;;55.67;;
11100;SDS011;5604;50.722;7.078;2022-09-09T07:00:23;53.03;;;50.53;;
11100;SDS011;5604;50.722;7.078;2022-09-09T07:02:52;51.50;;;49.27;;
11100;SDS011;5604;50.722;7.078;2022-09-09T07:05:21;50.57;;;48.23;;
11100;SDS011;5604;50.722;7.078;2022-09-09T07:07:52;49.30;;;47.03;;
11100;SDS011;5604;50.722;7.078;2022-09-09T07:10:21;47.83;;;45.47;;
11100;SDS011;5604;50.722;7.078;2022-09-09T07:12:50;42.70;;;40.57;;
11100;SDS011;5604;50.722;7.078;2022-09-09T07:15:21;40.60;;;38.70;;
11100;SDS011;5604;50.722;7.078;2022-09-09T07:17:50;41.53;;;39.70;;
11100;SDS011;5604;50.722;7.078;2022-09-09T07:20:18;39.43;;;37.70;;
11100;SDS011;5604;50.722;7.078;2022-09-09T07:22:47;35.57;;;33.83;;
11100;SDS011;5604;50.722;7.078;2022-09-09T07:25:16;35.07;;;33.47;;
11100;SDS011;5604;50.722;7.078;2022-09-09T07:27:45;34.20;;;32.57;;
11100;SDS011;5604;50.722;7.078;2022-09-09T07:30:14;37.27;;;35.27;;
11100;SDS011;5604;50.722;7.078;2022-09-09T07:32:53;34.43;;;32.47;;
11100;SDS011;5604;50.722;7.078;2022-09-09T07:35:24;36.63;;;34.80;;
11100;SDS011;5604;50.722;7.078;2022-09-09T07:37:52;35.70;;;33.90;;
11100;SDS011;5604;50.722;7.078;2022-09-09T07:40:22;29.77;;;28.13;;
11100;SDS011;5604;50.722;7.078;2022-09-09T07:42:50;28.87;;;27.07;;
11100;SDS011;5604;50.722;7.078;2022-09-09T07:45:18;27.30;;;25.80;;
11100;SDS011;5604;50.722;7.078;2022-09-09T07:47:46;29.00;;;27.63;;
11100;SDS011;5604;50.722;7.078;2022-09-09T07:50:15;26.33;;;24.90;;
11100;SDS011;5604;50.722;7.078;2022-09-09T07:52:43;29.77;;;28.03;;
11100;SDS011;5604;50.722;7.078;2022-09-09T07:55:12;25.73;;;24.37;;
11100;SDS011;5604;50.722;7.078;2022-09-09T07:57:43;25.87;;;24.73;;
11100;SDS011;5604;50.722;7.078;2022-09-09T08:00:12;23.83;;;22.57;;
11100;SDS011;5604;50.722;7.078;2022-09-09T08:02:47;24.90;;;23.67;;
11100;SDS011;5604;50.722;7.078;2022-09-09T08:05:17;23.70;;;22.40;;
11100;SDS011;5604;50.722;7.078;2022-09-09T08:07:45;23.43;;;22.10;;
11100;SDS011;5604;50.722;7.078;2022-09-09T08:10:14;26.27;;;24.87;;
11100;SDS011;5604;50.722;7.078;2022-09-09T08:12:45;27.60;;;26.03;;
11100;SDS011;5604;50.722;7.078;2022-09-09T08:15:33;22.53;;;21.23;;
11100;SDS011;5604;50.722;7.078;2022-09-09T08:18:03;22.50;;;21.07;;
11100;SDS011;5604;50.722;7.078;2022-09-09T08:20:32;23.23;;;21.77;;
11100;SDS011;5604;50.722;7.078;2022-09-09T08:23:01;23.40;;;21.80;;
11100;SDS011;5604;50.722;7.078;2022-09-09T08:25:29;23.47;;;22.03;;
11100;SDS011;5604;50.722;7.078;2022-09-09T08:27:59;21.53;;;20.40;;
11100;SDS011;5604;50.722;7.078;2022-09-09T08:30:28;21.20;;;20.10;;
11100;SDS011;5604;50.722;7.078;2022-09-09T08:32:56;20.00;;;19.03;;
11100;SDS011;5604;50.722;7.078;2022-09-09T08:35:27;21.23;;;19.87;;
11100;SDS011;5604;50.722;7.078;2022-09-09T08:38:00;20.77;;;19.53;;
11100;SDS011;5604;50.722;7.078;2022-09-09T08:40:36;21.23;;;19.93;;
11100;SDS011;5604;50.722;7.078;2022-09-09T08:43:08;30.20;;;28.80;;
11100;SDS011;5604;50.722;7.078;2022-09-09T08:45:40;27.50;;;26.20;;
11100;SDS011;5604;50.722;7.078;2022-09-09T08:48:19;29.93;;;28.13;;
11100;SDS011;5604;50.722;7.078;2022-09-09T08:50:54;28.10;;;26.73;;
11100;SDS011;5604;50.722;7.078;2022-09-09T08:53:33;32.53;;;30.77;;
11100;SDS011;5604;50.722;7.078;2022-09-09T08:56:08;31.03;;;29.53;;
11100;SDS011;5604;50.722;7.078;2022-09-09T08:58:45;28.43;;;26.97;;
11100;SDS011;5604;50.722;7.078;2022-09-09T09:01:23;30.70;;;29.10;;
11100;SDS011;5604;50.722;7.078;2022-09-09T09:04:03;29.07;;;27.53;;
11100;SDS011;5604;50.722;7.078;2022-09-09T09:06:40;31.50;;;29.93;;
11100;SDS011;5604;50.722;7.078;2022-09-09T09:09:17;34.73;;;33.27;;
11100;SDS011;5604;50.722;7.078;2022-09-09T09:11:50;35.53;;;33.93;;
11100;SDS011;5604;50.722;7.078;2022-09-09T09:14:21;36.47;;;34.50;;
11100;SDS011;5604;50.722;7.078;2022-09-09T09:16:56;35.33;;;33.60;;
11100;SDS011;5604;50.722;7.078;2022-09-09T09:19:28;32.40;;;31.03;;
11100;SDS011;5604;50.722;7.078;2022-09-09T09:21:58;36.70;;;35.17;;
11100;SDS011;5604;50.722;7.078;2022-09-09T09:24:33;39.03;;;37.30;;
11100;SDS011;5604;50.722;7.078;2022-09-09T09:27:11;38.80;;;37.07;;
11100;SDS011;5604;50.722;7.078;2022-09-09T09:29:46;38.27;;;36.43;;
11100;SDS011;5604;50.722;7.078;2022-09-09T09:32:37;41.07;;;39.23;;
11100;SDS011;5604;50.722;7.078;2022-09-09T09:35:09;45.43;;;43.43;;
11100;SDS011;5604;50.722;7.078;2022-09-09T09:37:41;42.40;;;40.60;;
11100;SDS011;5604;50.722;7.078;2022-09-09T09:40:31;46.60;;;44.43;;
11100;SDS011;5604;50.722;7.078;2022-09-09T09:43:01;50.70;;;48.40;;
11100;SDS011;5604;50.722;7.078;2022-09-09T09:45:42;46.97;;;45.00;;
11100;SDS011;5604;50.722;7.078;2022-09-09T09:48:32;40.47;;;38.63;;
11100;SDS011;5604;50.722;7.078;2022-09-09T09:51:08;43.27;;;41.33;;
11100;SDS011;5604;50.722;7.078;2022-09-09T09:53:41;40.97;;;39.10;;
11100;SDS011;5604;50.722;7.078;2022-09-09T09:56:11;43.83;;;41.93;;
11100;SDS011;5604;50.722;7.078;2022-09-09T09:58:48;42.50;;;40.63;;
11100;SDS011;5604;50.722;7.078;2022-09-09T10:01:23;46.07;;;43.77;;
11100;SDS011;5604;50.722;7.078;2022-09-09T10:03:54;43.50;;;41.60;;
11100;SDS011;5604;50.722;7.078;2022-09-09T10:06:29;44.53;;;42.63;;
11100;SDS011;5604;50.722;7.078;2022-09-09T10:08:57;43.47;;;41.67;;
11100;SDS011;5604;50.722;7.078;2022-09-09T10:11:30;47.87;;;45.57;;
11100;SDS011;5604;50.722;7.078;2022-09-09T10:14:11;46.63;;;44.47;;
11100;SDS011;5604;50.722;7.078;2022-09-09T10:16:49;47.83;;;45.80;;
11100;SDS011;5604;50.722;7.078;2022-09-09T10:19:29;47.60;;;45.50;;
11100;SDS011;5604;50.722;7.078;2022-09-09T10:22:06;47.73;;;45.70;;
11100;SDS011;5604;50.722;7.078;2022-09-09T10:24:50;50.63;;;48.50;;
11100;SDS011;5604;50.722;7.078;2022-09-09T10:27:42;45.33;;;43.37;;
11100;SDS011;5604;50.722;7.078;2022-09-09T10:30:26;46.90;;;44.90;;
11100;SDS011;5604;50.722;7.078;2022-09-09T10:33:00;49.67;;;47.60;;
11100;SDS011;5604;50.722;7.078;2022-09-09T10:35:34;49.90;;;47.73;;
11100;SDS011;5604;50.722;7.078;2022-09-09T10:38:10;49.20;;;47.17;;
11100;SDS011;5604;50.722;7.078;2022-09-09T10:40:48;46.30;;;44.23;;
11100;SDS011;5604;50.722;7.078;2022-09-09T10:43:33;49.97;;;47.83;;
11100;SDS011;5604;50.722;7.078;2022-09-09T10:46:15;45.27;;;43.27;;
11100;SDS011;5604;50.722;7.078;2022-09-09T10:49:03;47.30;;;45.03;;
11100;SDS011;5604;50.722;7.078;2022-09-09T10:51:39;51.67;;;49.40;;
11100;SDS011;5604;50.722;7.078;2022-09-09T10:54:15;49.37;;;47.27;;
11100;SDS011;5604;50.722;7.078;2022-09-09T10:56:52;49.47;;;47.30;;
11100;SDS011;5604;50.722;7.078;2022-09-09T10:59:23;53.60;;;51.30;;
11100;SDS011;5604;50.722;7.078;2022-09-09T11:01:53;54.73;;;52.33;;
11100;SDS011;5604;50.722;7.078;2022-09-09T11:04:28;53.87;;;51.67;;
11100;SDS011;5604;50.722;7.078;2022-09-09T11:07:02;52.73;;;50.33;;
11100;SDS011;5604;50.722;7.078;2022-09-09T11:09:38;52.20;;;49.97;;
11100;SDS011;5604;50.722;7.078;2022-09-09T11:12:12;49.80;;;47.53;;
11100;SDS011;5604;50.722;7.078;2022-09-09T11:14:44;50.73;;;48.20;;
11100;SDS011;5604;50.722;7.078;2022-09-09T11:17:14;51.53;;;49.40;;
11100;SDS011;5604;50.722;7.078;2022-09-09T11:19:46;52.83;;;50.50;;
11100;SDS011;5604;50.722;7.078;2022-09-09T11:22:16;51.63;;;49.33;;
11100;SDS011;5604;50.722;7.078;2022-09-09T11:24:48;55.30;;;52.97;;
11100;SDS011;5604;50.722;7.078;2022-09-09T11:27:21;59.77;;;57.10;;
11100;SDS011;5604;50.722;7.078;2022-09-09T11:30:04;52.13;;;49.87;;
11100;SDS011;5604;50.722;7.078;2022-09-09T11:33:04;49.70;;;47.47;;
11100;SDS011;5604;50.722;7.078;2022-09-09T11:35:47;55.57;;;53.00;;
11100;SDS011;5604;50.722;7.078;2022-09-09T11:38:32;53.37;;;51.13;;
11100;SDS011;5604;50.722;7.078;2022-09-09T11:41:05;54.73;;;52.53;;
11100;SDS011;5604;50.722;7.078;2022-09-09T11:43:38;59.70;;;57.23;;
11100;SDS011;5604;50.722;7.078;2022-09-09T11:46:09;58.33;;;55.97;;
11100;SDS011;5604;50.722;7.078;2022-09-09T11:48:39;58.53;;;56.10;;
11100;SDS011;5604;50.722;7.078;2022-09-09T11:51:12;61.87;;;59.33;;
11100;SDS011;5604;50.722;7.078;2022-09-09T11:53:47;58.70;;;56.27;;
11100;SDS011;5604;50.722;7.078;2022-09-09T11:56:24;66.67;;;63.27;;
11100;SDS011;5604;50.722;7.078;2022-09-09T11:58:54;56.97;;;54.63;;
11100;SDS011;5604;50.722;7.078;2022-09-09T12:01:29;63.50;;;60.77;;
11100;SDS011;5604;50.722;7.078;2022-09-09T12:04:20;58.00;;;55.57;;
11100;SDS011;5604;50.722;7.078;2022-09-09T12:07:04;61.07;;;58.30;;
11100;SDS011;5604;50.722;7.078;2022-09-09T12:09:48;58.53;;;56.17;;
11100;SDS011;5604;50.722;7.078;2022-09-09T12:12:23;63.83;;;61.13;;
11100;SDS011;5604;50.722;7.078;2022-09-09T12:14:58;60.40;;;57.87;;
11100;SDS011;5604;50.722;7.078;2022-09-09T12:17:48;59.00;;;56.57;;
11100;SDS011;5604;50.722;7.078;2022-09-09T12:20:18;65.53;;;62.80;;
11100;SDS011;5604;50.722;7.078;2022-09-09T12:23:13;61.67;;;59.10;;
11100;SDS011;5604;50.722;7.078;2022-09-09T12:25:51;60.07;;;57.50;;
11100;SDS011;5604;50.722;7.078;2022-09-09T12:28:25;59.37;;;56.97;;
11100;SDS011;5604;50.722;7.078;2022-09-09T12:30:58;66.43;;;63.63;;
11100;SDS011;5604;50.722;7.078;2022-09-09T12:33:33;63.97;;;61.37;;
11100;SDS011;5604;50.722;7.078;2022-09-09T12:36:03;63.07;;;60.50;;
11100;SDS011;5604;50.722;7.078;2022-09-09T12:38:38;68.07;;;65.23;;
11100;SDS011;5604;50.722;7.078;2022-09-09T12:41:16;67.73;;;64.90;;
11100;SDS011;5604;50.722;7.078;2022-09-09T12:43:46;60.53;;;58.00;;
11100;SDS011;5604;50.722;7.078;2022-09-09T12:46:20;67.40;;;64.63;;
11100;SDS011;5604;50.722;7.078;2022-09-09T12:49:00;68.90;;;66.17;;
11100;SDS011;5604;50.722;7.078;2022-09-09T12:51:29;68.10;;;65.37;;
11100;SDS011;5604;50.722;7.078;2022-09-09T12:53:59;65.57;;;62.83;;
11100;SDS011;5604;50.722;7.078;2022-09-09T12:56:28;67.77;;;64.97;;
11100;SDS011;5604;50.722;7.078;2022-09-09T12:58:58;72.27;;;69.33;;
11100;SDS011;5604;50.722;7.078;2022-09-09T13:01:28;70.17;;;67.30;;
11100;SDS011;5604;50.722;7.078;2022-09-09T13:03:57;71.40;;;68.43;;
11100;SDS011;5604;50.722;7.078;2022-09-09T13:06:26;72.83;;;69.87;;
11100;SDS011;5604;50.722;7.078;2022-09-09T13:08:56;73.00;;;70.03;;
11100;SDS011;5604;50.722;7.078;2022-09-09T13:11:28;69.67;;;66.73;;
11100;SDS011;5604;50.722;7.078;2022-09-09T13:13:58;71.33;;;68.30;;
11100;SDS011;5604;50.722;7.078;2022-09-09T13:16:29;72.03;;;69.20;;
11100;SDS011;5604;50.722;7.078;2022-09-09T13:19:08;74.57;;;71.60;;
11100;SDS011;5604;50.722;7.078;2022-09-09T13:21:41;72.30;;;69.37;;
11100;SDS011;5604;50.722;7.078;2022-09-09T13:24:22;73.40;;;70.37;;
11100;SDS011;5604;50.722;7.078;2022-09-09T13:26:56;70.57;;;67.73;;
11100;SDS011;5604;50.722;7.078;2022-09-09T13:29:27;70.40;;;67.43;;
11100;SDS011;5604;50.722;7.078;2022-09-09T13:32:03;76.03;;;72.80;;
11100;SDS011;5604;50.722;7.078;2022-09-09T13:34:33;73.07;;;70.13;;
11100;SDS011;5604;50.722;7.078;2022-09-09T13:37:03;74.23;;;71.10;;
11100;SDS011;5604;50.722;7.078;2022-09-09T13:39:33;70.83;;;68.00;;
11100;SDS011;5604;50.722;7.078;2022-09-09T13:42:04;73.20;;;70.23;;
11100;SDS011;5604;50.722;7.078;2022-09-09T13:44:34;69.50;;;66.53;;
11100;SDS011;5604;50.722;7.078;2022-09-09T13:47:05;68.20;;;65.50;;
11100;SDS011;5604;50.722;7.078;2022-09-09T13:49:43;68.80;;;66.13;;
11100;SDS011;5604;50.722;7.078;2022-09-09T13:52:12;71.17;;;68.30;;
11100;SDS011;5604;50.722;7.078;2022-09-09T13:54:42;71.27;;;68.37;;
11100;SDS011;5604;50.722;7.078;2022-09-09T13:57:15;74.27;;;70.60;;
11100;SDS011;5604;50.722;7.078;2022-09-09T13:59:45;74.37;;;71.47;;
11100;SDS011;5604;50.722;7.078;2022-09-09T14:02:30;69.23;;;66.40;;
11100;SDS011;5604;50.722;7.078;2022-09-09T14:04:59;70.33;;;67.47;;
11100;SDS011;5604;50.722;7.078;2022-09-09T14:07:29;72.73;;;69.77;;
11100;SDS011;5604;50.722;7.078;2022-09-09T14:10:00;74.50;;;71.53;;
11100;SDS011;5604;50.722;7.078;2022-09-09T14:12:32;74.77;;;71.77;;
11100;SDS011;5604;50.722;7.078;2022-09-09T14:15:02;73.87;;;70.90;;
11100;SDS011;5604;50.722;7.078;2022-09-09T14:17:32;71.27;;;68.47;;
11100;SDS011;5604;50.722;7.078;2022-09-09T14:20:02;73.47;;;70.60;;
11100;SDS011;5604;50.722;7.078;2022-09-09T14:22:34;75.53;;;72.60;;
11100;SDS011;5604;50.722;7.078;2022-09-09T14:25:04;75.23;;;71.97;;
11100;SDS011;5604;50.722;7.078;2022-09-09T14:27:34;74.70;;;71.70;;
11100;SDS011;5604;50.722;7.078;2022-09-09T14:30:03;73.60;;;70.70;;
11100;SDS011;5604;50.722;7.078;2022-09-09T14:32:32;70.23;;;67.50;;
11100;SDS011;5604;50.722;7.078;2022-09-09T14:35:02;73.97;;;71.13;;
11100;SDS011;5604;50.722;7.078;2022-09-09T14:37:31;78.07;;;74.97;;
11100;SDS011;5604;50.722;7.078;2022-09-09T14:39:59;77.20;;;74.10;;
11100;SDS011;5604;50.722;7.078;2022-09-09T14:42:27;69.40;;;66.57;;
11100;SDS011;5604;50.722;7.078;2022-09-09T14:44:58;73.30;;;70.40;;
11100;SDS011;5604;50.722;7.078;2022-09-09T14:47:26;77.20;;;74.10;;
11100;SDS011;5604;50.722;7.078;2022-09-09T14:49:54;74.50;;;71.57;;
11100;SDS011;5604;50.722;7.078;2022-09-09T14:52:22;80.37;;;77.20;;
11100;SDS011;5604;50.722;7.078;2022-09-09T14:54:52;79.60;;;76.57;;
11100;SDS011;5604;50.722;7.078;2022-09-09T14:57:20;81.00;;;77.87;;
11100;SDS011;5604;50.722;7.078;2022-09-09T14:59:49;78.97;;;75.80;;
11100;SDS011;5604;50.722;7.078;2022-09-09T15:02:19;80.60;;;77.47;;
11100;SDS011;5604;50.722;7.078;2022-09-09T15:04:47;77.20;;;74.23;;
11100;SDS011;5604;50.722;7.078;2022-09-09T15:07:16;79.10;;;75.90;;
11100;SDS011;5604;50.722;7.078;2022-09-09T15:09:45;75.27;;;72.40;;
11100;SDS011;5604;50.722;7.078;2022-09-09T15:12:15;78.30;;;75.30;;
11100;SDS011;5604;50.722;7.078;2022-09-09T15:14:45;77.87;;;74.73;;
11100;SDS011;5604;50.722;7.078;2022-09-09T15:17:13;76.73;;;73.77;;
11100;SDS011;5604;50.722;7.078;2022-09-09T15:19:43;77.40;;;74.33;;